Time;durP1;ratioP1;P1;durP2;ratioP2;P2;SDS_P1;SDS_P2;PMS_P1;PMS_P2;Temp;Humidity;BMP_temperature;BMP_pressure;BME280_temperature;BME280_humidity;BME280_pressure;Samples;Min_cycle;Max_cycle;Signal;HPM_P1;HPM_P2
2023/03/25 00:01:07;;;;;;;0.30;0.20;;;;;;;9.93;100.00;99387.66;4923604;28;20506;-50
2023/03/25 00:03:40;;;;;;;0.80;0.30;;;;;;;9.92;100.00;99386.78;4936028;28;20492;-49
2023/03/25 00:06:09;;;;;;;2.00;0.50;;;;;;;9.94;100.00;99389.38;4949101;28;20443;-49
2023/03/25 00:08:36;;;;;;;0.50;0.30;;;;;;;9.88;100.00;99398.47;4946845;28;20922;-51
2023/03/25 00:11:04;;;;;;;0.50;0.40;;;;;;;9.64;100.00;99392.34;4938253;28;20490;-50
2023/03/25 00:13:30;;;;;;;0.30;0.20;;;;;;;9.93;100.00;99387.66;4942517;29;20456;-49
2023/03/25 00:15:58;;;;;;;0.40;0.30;;;;;;;9.84;100.00;99396.84;4938881;28;20978;-49
2023/03/25 00:18:32;;;;;;;6.00;0.70;;;;;;;9.96;99.78;99400.78;4936004;28;20460;-50
2023/03/25 00:21:04;;;;;;;0.30;0.20;;;;;;;10.07;99.97;99403.88;4937558;29;20529;-50
2023/03/25 00:23:31;;;;;;;0.30;0.20;;;;;;;10.09;98.63;99408.19;4942303;29;20901;-50
2023/03/25 00:25:59;;;;;;;0.50;0.33;;;;;;;10.01;99.02;99406.81;4940838;29;20537;-49
2023/03/25 00:28:27;;;;;;;0.47;0.30;;;;;;;10.10;98.84;99409.94;4935826;28;20459;-49
2023/03/25 00:30:57;;;;;;;0.30;0.20;;;;;;;9.97;98.65;99406.03;4937440;28;20483;-50
2023/03/25 00:33:23;;;;;;;0.43;0.30;;;;;;;10.00;98.86;99405.03;4942319;29;20996;-50
2023/03/25 00:35:53;;;;;;;0.60;0.50;;;;;;;9.93;98.67;99404.44;4937542;28;20766;-50
2023/03/25 00:38:19;;;;;;;0.63;0.27;;;;;;;10.08;98.66;99397.66;4942124;29;20456;-51
2023/03/25 00:40:47;;;;;;;0.50;0.33;;;;;;;9.98;98.88;99406.91;4941821;28;20480;-50
2023/03/25 00:43:13;;;;;;;0.47;0.47;;;;;;;10.14;98.42;99392.06;4942040;29;20498;-49
2023/03/25 00:45:40;;;;;;;0.30;0.20;;;;;;;10.20;97.54;99389.19;4942312;29;20891;-49
2023/03/25 00:48:06;;;;;;;3.30;0.37;;;;;;;10.25;97.87;99389.00;4935491;28;20460;-49
2023/03/25 00:50:33;;;;;;;0.40;0.20;;;;;;;10.27;98.39;99392.47;4935344;28;20480;-50
2023/03/25 00:53:00;;;;;;;0.30;0.20;;;;;;;10.36;98.02;99392.94;4917011;29;20468;-50
2023/03/25 00:55:26;;;;;;;0.40;0.30;;;;;;;10.28;98.08;99391.53;4942093;29;20823;-51
2023/03/25 00:57:52;;;;;;;0.40;0.30;;;;;;;10.36;98.08;99397.41;4936179;28;20461;-50
2023/03/25 01:00:19;;;;;;;1.17;0.43;;;;;;;10.31;98.74;99394.09;4935879;28;20554;-50
2023/03/25 01:02:48;;;;;;;0.47;0.40;;;;;;;10.26;97.92;99378.31;4938630;28;20464;-49
2023/03/25 01:05:14;;;;;;;8.73;0.30;;;;;;;10.24;97.84;99390.81;4935655;28;20496;-51
2023/03/25 01:07:41;;;;;;;0.30;0.20;;;;;;;10.27;99.15;99389.81;4948062;28;20505;-48
2023/03/25 01:10:08;;;;;;;5.70;0.60;;;;;;;10.25;100.00;99389.00;4941706;28;20570;-50
2023/03/25 01:12:35;;;;;;;0.43;0.40;;;;;;;10.35;99.60;99388.56;4937240;28;20464;-50
2023/03/25 01:15:02;;;;;;;0.40;0.30;;;;;;;10.37;99.78;99388.50;4935020;28;20467;-50
2023/03/25 01:17:28;;;;;;;1.83;0.30;;;;;;;10.39;99.91;99391.94;4939898;28;20457;-49
2023/03/25 01:19:54;;;;;;;0.40;0.30;;;;;;;10.46;99.99;99380.16;4941758;29;20790;-49
2023/03/25 01:22:21;;;;;;;0.50;0.40;;;;;;;10.44;99.14;99382.00;4937514;28;20463;-49
2023/03/25 01:24:47;;;;;;;9.20;0.80;;;;;;;10.47;99.56;99381.88;4942831;28;20491;-50
2023/03/25 01:27:14;;;;;;;1.40;0.70;;;;;;;10.46;98.96;99381.94;4940858;28;20459;-49
2023/03/25 01:29:40;;;;;;;5.20;0.40;;;;;;;10.47;100.00;99370.38;4938496;28;20548;-48
2023/03/25 01:32:07;;;;;;;1.27;0.60;;;;;;;10.52;99.41;99373.69;4943380;28;20495;-50
2023/03/25 01:34:37;;;;;;;0.40;0.30;;;;;;;10.75;99.31;99373.56;4944933;29;20455;-49
2023/03/25 01:37:03;;;;;;;0.73;0.40;;;;;;;10.75;98.87;99375.34;4941068;29;20470;-49
2023/03/25 01:39:30;;;;;;;0.97;0.43;;;;;;;10.51;97.82;99378.16;4938485;28;20471;-50
2023/03/25 01:41:56;;;;;;;0.40;0.20;;;;;;;10.72;98.17;99373.72;4942316;28;20499;-49
2023/03/25 01:44:23;;;;;;;0.83;0.30;;;;;;;10.53;98.08;99378.06;4946389;29;20504;-51
2023/03/25 01:46:51;;;;;;;0.50;0.30;;;;;;;10.63;98.40;99369.66;4945547;28;20463;-49
2023/03/25 01:49:37;;;;;;;0.53;0.40;;;;;;;10.48;98.67;99366.78;4938114;28;20455;-49
2023/03/25 01:52:10;;;;;;;2.03;1.00;;;;;;;10.50;98.19;99360.47;4938966;28;20456;-50
2023/03/25 01:54:37;;;;;;;0.40;0.40;;;;;;;10.53;99.31;99360.34;4926229;29;20455;-50
2023/03/25 01:57:07;;;;;;;1.27;0.43;;;;;;;10.66;97.21;99352.69;4937984;28;20535;-48
2023/03/25 01:59:34;;;;;;;0.30;0.20;;;;;;;10.44;97.57;99357.25;4943763;28;20464;-49
2023/03/25 02:02:03;;;;;;;0.40;0.23;;;;;;;10.52;97.83;99353.31;4944551;29;20459;-50
2023/03/25 02:04:39;;;;;;;0.40;0.20;;;;;;;10.52;98.25;99342.66;4939538;29;20501;-50
2023/03/25 02:07:07;;;;;;;0.30;0.20;;;;;;;10.51;97.04;99340.09;4950788;28;20451;-50
2023/03/25 02:09:33;;;;;;;0.30;0.20;;;;;;;10.55;96.96;99334.59;4942357;28;20471;-49
2023/03/25 02:12:00;;;;;;;0.30;0.23;;;;;;;10.54;97.72;99335.50;4946148;28;20569;-49
2023/03/25 02:14:31;;;;;;;0.40;0.30;;;;;;;10.39;97.22;99329.06;4939887;28;20543;-49
2023/03/25 02:17:29;;;;;;;0.40;0.30;;;;;;;10.37;97.29;99328.25;4944506;29;20451;-49
2023/03/25 02:20:19;;;;;;;7.30;1.07;;;;;;;10.49;97.29;99321.56;4944528;28;20529;-48
2023/03/25 02:23:27;;;;;;;0.50;0.30;;;;;;;10.58;97.30;99312.34;4937155;28;20460;-49
2023/03/25 02:26:19;;;;;;;0.30;0.20;;;;;;;10.28;97.42;99315.41;4934008;28;20537;-48
2023/03/25 02:28:54;;;;;;;3.87;0.77;;;;;;;10.16;97.80;99315.88;4943174;28;20543;-50
2023/03/25 02:31:54;;;;;;;0.57;0.47;;;;;;;10.29;97.21;99317.13;4943642;29;20568;-49
2023/03/25 02:34:41;;;;;;;0.30;0.20;;;;;;;10.13;97.70;99304.50;4944193;28;20455;-49
2023/03/25 02:37:51;;;;;;;0.30;0.20;;;;;;;10.07;97.94;99314.47;4941488;29;20785;-49
2023/03/25 02:40:23;;;;;;;0.57;0.23;;;;;;;10.13;97.47;99310.69;4940799;29;20484;-49
2023/03/25 02:43:17;;;;;;;0.37;0.23;;;;;;;10.16;97.41;99320.34;4943757;29;20456;-49
2023/03/25 02:45:48;;;;;;;3.40;0.37;;;;;;;10.09;97.30;99311.75;4943941;29;20906;-49
2023/03/25 02:48:22;;;;;;;6.03;0.50;;;;;;;10.02;97.15;99297.03;4939464;29;20513;-49
2023/03/25 02:50:52;;;;;;;1.27;1.17;;;;;;;10.05;96.90;99295.09;4937011;28;20487;-48
2023/03/25 02:53:25;;;;;;;5.80;0.40;;;;;;;9.94;97.93;99300.00;4940741;28;20457;-48
2023/03/25 02:55:57;;;;;;;0.40;0.20;;;;;;;10.05;96.94;99288.94;4939577;29;20460;-49
2023/03/25 02:58:24;;;;;;;0.30;0.20;;;;;;;10.04;97.27;99297.81;4923345;28;20832;-48
2023/03/25 03:00:51;;;;;;;0.30;0.20;;;;;;;10.01;97.28;99298.81;4943689;29;20492;-49
2023/03/25 03:03:17;;;;;;;21.03;0.63;;;;;;;9.94;97.27;99288.50;4933559;29;20468;-49
2023/03/25 03:05:49;;;;;;;0.33;0.20;;;;;;;10.09;97.03;99298.47;4949035;28;20495;-49
2023/03/25 03:08:33;;;;;;;0.30;0.30;;;;;;;10.11;96.81;99291.31;4949971;28;20451;-49
2023/03/25 03:11:20;;;;;;;0.40;0.30;;;;;;;10.23;96.20;99297.91;4941999;28;20575;-49
2023/03/25 03:13:59;;;;;;;0.40;0.20;;;;;;;10.16;96.02;99289.34;4941712;29;20526;-49
2023/03/25 03:16:31;;;;;;;0.47;0.37;;;;;;;10.09;96.11;99288.72;4936999;29;20455;-48
2023/03/25 03:19:22;;;;;;;0.30;0.20;;;;;;;10.05;96.58;99284.47;4937652;28;20463;-50
2023/03/25 03:22:01;;;;;;;0.40;0.30;;;;;;;10.01;96.11;99280.22;4936670;28;20475;-49
2023/03/25 03:24:33;;;;;;;1.27;0.50;;;;;;;9.86;96.59;99280.84;4937443;28;20500;-49
2023/03/25 03:27:06;;;;;;;0.60;0.50;;;;;;;9.96;96.14;99276.03;4924620;29;20509;-49
2023/03/25 03:29:43;;;;;;;0.30;0.20;;;;;;;9.92;96.27;99293.03;4936589;28;20456;-50
2023/03/25 03:32:20;;;;;;;1.27;0.33;;;;;;;9.72;96.31;99309.75;4939417;29;20456;-50
2023/03/25 03:34:58;;;;;;;0.47;0.27;;;;;;;9.89;96.13;99304.63;4943376;29;20452;-49
2023/03/25 03:37:35;;;;;;;0.50;0.30;;;;;;;9.95;95.54;99304.38;4940636;29;20819;-48
2023/03/25 03:40:06;;;;;;;0.40;0.30;;;;;;;9.89;95.83;99306.44;4925526;28;20537;-49
2023/03/25 03:42:38;;;;;;;2.23;0.90;;;;;;;9.65;95.97;99306.50;4936283;28;20843;-49
2023/03/25 03:45:11;;;;;;;0.30;0.20;;;;;;;9.76;95.50;99314.03;4935139;29;20487;-49
2023/03/25 03:47:42;;;;;;;0.30;0.20;;;;;;;9.76;95.50;99317.53;4935519;28;21040;-48
2023/03/25 03:50:31;;;;;;;0.37;0.27;;;;;;;9.76;94.48;99320.19;4939531;28;20985;-49
2023/03/25 03:53:35;;;;;;;0.40;0.40;;;;;;;9.73;94.02;99338.91;4936835;28;20818;-49
2023/03/25 03:56:08;;;;;;;1.63;0.50;;;;;;;9.74;94.66;99337.13;4936316;28;20447;-49
2023/03/25 03:58:41;;;;;;;0.50;0.30;;;;;;;9.73;94.00;99354.84;4943922;28;20463;-49
2023/03/25 04:01:15;;;;;;;1.47;0.50;;;;;;;9.67;94.45;99349.75;4942469;28;21115;-49
2023/03/25 04:03:49;;;;;;;1.57;1.37;;;;;;;9.73;94.54;99354.84;4943262;29;20993;-49
2023/03/25 04:06:23;;;;;;;0.30;0.20;;;;;;;9.62;93.85;99366.78;4939274;28;20444;-49
2023/03/25 04:08:58;;;;;;;0.30;0.20;;;;;;;9.67;94.18;99367.47;4945208;28;20457;-49
2023/03/25 04:11:48;;;;;;;0.30;0.20;;;;;;;9.64;94.38;99368.47;4938232;29;20499;-48
2023/03/25 04:14:15;;;;;;;2.10;0.43;;;;;;;9.78;94.27;99366.13;4924539;28;20456;-49
2023/03/25 04:16:44;;;;;;;0.40;0.20;;;;;;;9.61;93.73;99381.00;4942398;29;20459;-49
2023/03/25 04:19:17;;;;;;;0.67;0.63;;;;;;;9.65;93.83;99383.44;4936294;28;20462;-50
2023/03/25 04:21:46;;;;;;;0.40;0.40;;;;;;;9.71;94.16;99384.97;4942625;29;20476;-48
2023/03/25 04:24:15;;;;;;;0.70;0.70;;;;;;;9.70;93.64;99384.13;4936045;29;20507;-50
2023/03/25 04:26:42;;;;;;;0.40;0.40;;;;;;;9.82;94.21;99382.78;4942805;29;20460;-49
2023/03/25 04:29:09;;;;;;;0.30;0.20;;;;;;;9.70;93.58;99389.44;4939687;28;20459;-49
2023/03/25 04:31:36;;;;;;;0.40;0.30;;;;;;;9.59;93.86;99385.47;4935532;28;20475;-49
2023/03/25 04:34:03;;;;;;;0.73;0.73;;;;;;;9.79;94.35;99386.41;4938264;28;20957;-49
2023/03/25 04:36:36;;;;;;;0.30;0.20;;;;;;;9.68;94.41;99388.63;4942057;28;20958;-50
2023/03/25 04:39:03;;;;;;;0.57;0.40;;;;;;;9.69;94.30;99386.84;4941596;28;20455;-49
2023/03/25 04:41:30;;;;;;;0.33;0.23;;;;;;;9.86;94.02;99383.50;4935846;28;20505;-49
2023/03/25 04:43:57;;;;;;;0.30;0.20;;;;;;;9.78;94.78;99382.03;4945825;28;20486;-48
2023/03/25 04:46:24;;;;;;;0.30;0.20;;;;;;;9.85;95.12;99387.09;4942458;28;20514;-51
2023/03/25 04:48:52;;;;;;;0.30;0.20;;;;;;;9.85;95.41;99384.44;4942064;28;20463;-49
2023/03/25 04:51:18;;;;;;;10.13;0.77;;;;;;;9.92;95.26;99383.28;4923589;29;20475;-51
2023/03/25 04:53:45;;;;;;;1.80;0.53;;;;;;;9.94;96.09;99381.41;4935631;28;20467;-50
2023/03/25 04:56:16;;;;;;;0.40;0.30;;;;;;;9.98;95.79;99385.66;4944835;28;20513;-50
2023/03/25 04:58:44;;;;;;;0.40;0.33;;;;;;;9.94;96.25;99390.25;4935595;28;20459;-49
2023/03/25 05:01:23;;;;;;;0.40;0.30;;;;;;;10.07;96.52;99385.31;4939365;28;20587;-49
2023/03/25 05:03:49;;;;;;;0.50;0.40;;;;;;;9.82;97.29;99384.56;4942018;29;20452;-48
2023/03/25 05:06:17;;;;;;;1.63;0.67;;;;;;;10.00;97.22;99397.94;4938791;28;20495;-48
2023/03/25 05:08:44;;;;;;;2.30;0.50;;;;;;;9.72;97.22;99394.66;4944886;28;20483;-49
2023/03/25 05:11:10;;;;;;;0.40;0.30;;;;;;;9.84;97.46;99398.63;4938202;28;20552;-47
2023/03/25 05:13:36;;;;;;;0.47;0.30;;;;;;;9.73;97.82;99391.09;4941937;28;20466;-48
2023/03/25 05:16:03;;;;;;;0.97;0.80;;;;;;;9.70;98.66;99412.44;4938941;28;20971;-49
2023/03/25 05:18:30;;;;;;;2.20;0.50;;;;;;;9.67;99.05;99410.78;4935236;28;20459;-47
2023/03/25 05:20:56;;;;;;;1.30;0.60;;;;;;;9.58;100.00;99413.78;4938349;28;20476;-46
2023/03/25 05:23:23;;;;;;;0.30;0.30;;;;;;;9.47;100.00;99422.19;4939926;28;20463;-47
2023/03/25 05:25:50;;;;;;;0.30;0.20;;;;;;;9.48;100.00;99417.75;4938040;28;20500;-48
2023/03/25 05:28:18;;;;;;;0.30;0.20;;;;;;;9.46;100.00;99419.59;4941760;29;20514;-47
2023/03/25 05:30:46;;;;;;;0.30;0.20;;;;;;;9.49;100.00;99427.41;4939220;29;20511;-48
2023/03/25 05:33:16;;;;;;;0.30;0.20;;;;;;;9.46;100.00;99425.75;4935300;28;20507;-49
2023/03/25 05:35:43;;;;;;;0.83;0.63;;;;;;;9.49;100.00;99432.72;4936726;28;20482;-47
2023/03/25 05:38:17;;;;;;;0.30;0.20;;;;;;;9.54;100.00;99449.31;4934265;29;20904;-47
2023/03/25 05:40:45;;;;;;;0.40;0.30;;;;;;;9.62;100.00;99420.72;4935648;28;20475;-48
2023/03/25 05:43:15;;;;;;;0.43;0.33;;;;;;;9.65;100.00;99440.97;4925267;29;20485;-47
2023/03/25 05:45:43;;;;;;;4.93;0.30;;;;;;;9.74;100.00;99432.66;4945369;28;20484;-48
2023/03/25 05:48:10;;;;;;;0.40;0.20;;;;;;;9.59;100.00;99426.13;4943572;28;20478;-49
2023/03/25 05:50:36;;;;;;;0.30;0.20;;;;;;;9.68;100.00;99430.22;4934655;28;20530;-49
2023/03/25 05:53:03;;;;;;;0.60;0.40;;;;;;;9.68;100.00;99451.44;4940603;28;20460;-50
2023/03/25 05:55:31;;;;;;;0.30;0.20;;;;;;;9.76;100.00;99444.94;4929305;29;20456;-49
2023/03/25 05:57:57;;;;;;;0.40;0.30;;;;;;;9.84;100.00;99446.41;4940087;28;20456;-49
2023/03/25 06:00:24;;;;;;;0.37;0.23;;;;;;;9.85;100.00;99446.34;4937709;28;20570;-51
2023/03/25 06:02:50;;;;;;;0.40;0.20;;;;;;;9.91;100.00;99447.91;4936065;28;20948;-48
2023/03/25 06:05:22;;;;;;;0.30;0.20;;;;;;;9.74;100.00;99443.28;4928520;28;20972;-49
2023/03/25 06:07:49;;;;;;;1.30;0.40;;;;;;;9.87;100.00;99444.53;4930876;28;20460;-49
2023/03/25 06:10:17;;;;;;;0.40;0.30;;;;;;;9.76;100.00;99444.06;4933877;28;20484;-48
2023/03/25 06:12:45;;;;;;;0.63;0.60;;;;;;;9.72;100.00;99448.59;4946819;28;20583;-51
2023/03/25 06:15:16;;;;;;;2.07;0.30;;;;;;;9.70;100.00;99458.41;4934495;28;20484;-50
2023/03/25 06:17:45;;;;;;;0.70;0.30;;;;;;;9.62;100.00;99459.66;4936672;28;20456;-49
2023/03/25 06:20:15;;;;;;;0.40;0.20;;;;;;;9.67;99.96;99458.53;4944541;28;20513;-48
2023/03/25 06:22:44;;;;;;;0.40;0.23;;;;;;;9.65;99.00;99455.09;4948925;29;20459;-48
2023/03/25 06:25:12;;;;;;;0.60;0.20;;;;;;;9.69;99.10;99448.72;4937759;28;21015;-49
2023/03/25 06:27:40;;;;;;;0.40;0.40;;;;;;;9.79;98.18;99450.13;4938973;28;20452;-48
2023/03/25 06:30:09;;;;;;;0.50;0.30;;;;;;;9.87;98.23;99441.88;4943900;29;20476;-48
2023/03/25 06:32:37;;;;;;;0.30;0.20;;;;;;;9.94;98.82;99435.38;4931448;29;20464;-50
2023/03/25 06:35:06;;;;;;;1.60;0.40;;;;;;;10.00;97.71;99436.91;4940447;29;20451;-50
2023/03/25 06:37:32;;;;;;;5.70;0.50;;;;;;;9.94;97.29;99431.84;4940922;28;20455;-48
2023/03/25 06:39:59;;;;;;;1.17;1.07;;;;;;;9.93;98.27;99438.09;4937797;29;20482;-48
2023/03/25 06:42:26;;;;;;;1.37;0.80;;;;;;;10.17;97.59;99423.84;4951150;28;20515;-49
2023/03/25 06:44:54;;;;;;;1.40;0.90;;;;;;;9.93;96.95;99438.97;4922120;29;20861;-48
2023/03/25 06:47:21;;;;;;;2.23;0.80;;;;;;;9.99;95.78;99422.78;4936665;29;20957;-49
2023/03/25 06:49:48;;;;;;;0.40;0.30;;;;;;;10.01;96.61;99428.03;4935539;28;20477;-48
2023/03/25 06:52:15;;;;;;;0.30;0.20;;;;;;;10.05;96.20;99421.69;4930039;28;20473;-49
2023/03/25 06:54:41;;;;;;;0.63;0.30;;;;;;;10.15;95.79;99428.34;4931744;29;21027;-48
2023/03/25 06:57:08;;;;;;;1.37;0.50;;;;;;;10.24;95.35;99429.78;4933158;29;20468;-48
2023/03/25 06:59:35;;;;;;;3.90;1.57;;;;;;;10.23;95.47;99433.38;4944011;28;20504;-49
2023/03/25 07:02:01;;;;;;;0.40;0.30;;;;;;;10.27;94.82;99427.00;4933406;28;20456;-49
2023/03/25 07:04:28;;;;;;;0.53;0.43;;;;;;;10.08;96.11;99422.41;4931188;28;20837;-48
2023/03/25 07:06:54;;;;;;;4.00;0.60;;;;;;;10.27;95.77;99425.19;4947457;28;20488;-49
2023/03/25 07:09:23;;;;;;;6.97;1.17;;;;;;;10.20;96.06;99420.19;4942227;28;20817;-50
2023/03/25 07:11:49;;;;;;;0.60;0.40;;;;;;;10.21;95.61;99420.16;4939417;28;20507;-48
2023/03/25 07:14:17;;;;;;;5.60;1.00;;;;;;;10.37;95.38;99417.72;4935288;29;20462;-49
2023/03/25 07:16:43;;;;;;;0.60;0.40;;;;;;;10.37;94.50;99413.28;4944421;28;20463;-48
2023/03/25 07:19:10;;;;;;;0.57;0.57;;;;;;;10.46;95.41;99413.81;4935427;28;20514;-50
2023/03/25 07:21:36;;;;;;;2.00;1.13;;;;;;;10.52;94.58;99411.75;4939136;28;20484;-49
2023/03/25 07:24:02;;;;;;;21.13;0.87;;;;;;;10.43;94.57;99416.63;4947903;28;20878;-47
2023/03/25 07:26:29;;;;;;;19.63;1.23;;;;;;;10.66;94.76;99412.03;4938683;29;20496;-49
2023/03/25 07:28:55;;;;;;;0.73;0.60;;;;;;;10.79;94.46;99416.81;4939778;28;20473;-50
2023/03/25 07:31:22;;;;;;;1.13;0.90;;;;;;;10.94;93.61;99422.31;4943052;29;20492;-51
2023/03/25 07:33:50;;;;;;;14.03;2.13;;;;;;;10.96;93.13;99416.94;4939203;28;20461;-49
2023/03/25 07:36:17;;;;;;;1.70;0.80;;;;;;;11.10;93.01;99405.69;4943271;29;20455;-48
2023/03/25 07:38:43;;;;;;;8.20;0.43;;;;;;;11.09;92.64;99419.91;4936435;28;20460;-49
2023/03/25 07:41:11;;;;;;;1.50;1.33;;;;;;;11.11;92.98;99413.63;4942969;28;20476;-50
2023/03/25 07:43:39;;;;;;;2.10;1.90;;;;;;;11.17;91.82;99412.47;4940459;29;20455;-48
2023/03/25 07:46:05;;;;;;;3.83;1.03;;;;;;;11.28;92.04;99415.50;4939149;28;20491;-48
2023/03/25 07:48:32;;;;;;;2.93;0.93;;;;;;;11.41;90.58;99408.69;4944867;28;20471;-50
2023/03/25 07:50:58;;;;;;;1.90;0.67;;;;;;;11.41;89.83;99402.50;4935073;28;20471;-49
2023/03/25 07:53:25;;;;;;;2.77;0.30;;;;;;;11.58;89.06;99414.09;4937470;28;20460;-49
2023/03/25 07:55:51;;;;;;;13.40;1.33;;;;;;;11.61;89.90;99417.53;4940346;29;20460;-50
2023/03/25 07:58:18;;;;;;;0.40;0.40;;;;;;;11.76;88.91;99424.81;4940575;28;20867;-50
2023/03/25 08:00:45;;;;;;;2.93;0.57;;;;;;;11.91;89.20;99418.78;4936433;28;21035;-49
2023/03/25 08:03:13;;;;;;;9.43;1.23;;;;;;;11.96;88.11;99419.44;4939240;28;20502;-51
2023/03/25 08:05:45;;;;;;;7.00;0.47;;;;;;;12.07;87.05;99425.13;4940132;28;20891;-50
2023/03/25 08:08:12;;;;;;;21.30;1.60;;;;;;;12.08;86.71;99407.31;4931497;28;20487;-50
2023/03/25 08:10:43;;;;;;;2.73;1.47;;;;;;;11.95;85.96;99431.03;4943051;29;20499;-52
2023/03/25 08:13:10;;;;;;;5.40;0.30;;;;;;;11.92;88.07;99432.94;4939210;28;20473;-53
2023/03/25 08:15:38;;;;;;;5.23;1.10;;;;;;;12.07;87.89;99427.78;4937228;28;20883;-51
2023/03/25 08:18:06;;;;;;;1.27;0.70;;;;;;;12.06;87.08;99438.47;4943477;28;20460;-53
2023/03/25 08:20:33;;;;;;;17.43;1.93;;;;;;;12.17;88.07;99436.16;4941114;28;20476;-51
2023/03/25 08:23:01;;;;;;;3.13;0.93;;;;;;;12.31;85.97;99431.00;4939701;29;20555;-52
2023/03/25 08:25:28;;;;;;;1.70;0.57;;;;;;;12.28;85.56;99423.19;4948214;28;20549;-52
2023/03/25 08:27:55;;;;;;;8.03;0.50;;;;;;;12.19;84.84;99415.63;4934338;28;20459;-52
2023/03/25 08:30:22;;;;;;;0.83;0.83;;;;;;;12.29;83.59;99419.56;4941828;28;20486;-53
2023/03/25 08:32:53;;;;;;;6.83;0.60;;;;;;;12.37;84.48;99419.22;4935342;28;20499;-52
2023/03/25 08:35:22;;;;;;;4.90;1.23;;;;;;;12.45;85.13;99412.53;4945224;28;20463;-51
2023/03/25 08:37:50;;;;;;;2.20;1.40;;;;;;;12.63;85.00;99409.91;4950532;28;20551;-52
2023/03/25 08:40:17;;;;;;;2.20;0.60;;;;;;;12.59;83.53;99408.31;4938868;28;21007;-52
2023/03/25 08:42:43;;;;;;;3.03;0.60;;;;;;;12.59;83.60;99409.16;4935508;28;20459;-52
2023/03/25 08:45:10;;;;;;;2.97;1.20;;;;;;;12.53;84.50;99408.63;4938879;28;20460;-52
2023/03/25 08:47:37;;;;;;;0.40;0.30;;;;;;;12.87;84.65;99408.59;4935608;29;20956;-51
2023/03/25 08:50:04;;;;;;;8.73;1.03;;;;;;;12.59;83.78;99411.84;4944403;28;20479;-51
2023/03/25 08:52:31;;;;;;;1.20;0.47;;;;;;;12.74;84.06;99411.03;4941930;29;20462;-52
2023/03/25 08:54:57;;;;;;;0.40;0.30;;;;;;;12.43;85.60;99413.56;4921951;28;20457;-52
2023/03/25 08:57:23;;;;;;;0.50;0.40;;;;;;;12.20;85.09;99414.72;4926668;29;20456;-52
2023/03/25 08:59:50;;;;;;;6.10;1.30;;;;;;;12.28;85.75;99417.84;4932016;29;20476;-52
2023/03/25 09:02:16;;;;;;;2.40;0.73;;;;;;;12.47;85.61;99417.78;4941567;29;20456;-52
2023/03/25 09:04:43;;;;;;;0.40;0.27;;;;;;;12.62;85.61;99411.69;4933835;28;20490;-52
2023/03/25 09:07:09;;;;;;;0.90;0.60;;;;;;;12.64;86.18;99401.81;4939896;28;20542;-52
2023/03/25 09:09:39;;;;;;;0.83;0.63;;;;;;;12.58;87.44;99403.91;4942302;28;20524;-52
2023/03/25 09:12:06;;;;;;;2.30;0.63;;;;;;;12.23;86.29;99406.56;4931038;28;20476;-51
2023/03/25 09:14:32;;;;;;;0.40;0.30;;;;;;;12.07;90.95;99413.59;4928987;28;20467;-51
2023/03/25 09:16:59;;;;;;;1.53;1.43;;;;;;;11.93;92.19;99424.91;4936240;29;20551;-51
2023/03/25 09:19:25;;;;;;;5.23;1.30;;;;;;;11.91;94.76;99415.25;4941644;28;20923;-51
2023/03/25 09:21:52;;;;;;;0.50;0.50;;;;;;;11.75;95.57;99407.97;4930334;28;21009;-51
2023/03/25 09:24:21;;;;;;;10.63;0.50;;;;;;;11.85;96.40;99416.41;4940623;29;20463;-52
2023/03/25 09:26:48;;;;;;;0.60;0.33;;;;;;;12.24;95.83;99412.75;4934922;28;20503;-51
2023/03/25 09:29:15;;;;;;;1.17;0.73;;;;;;;12.43;94.84;99434.88;4935597;28;21041;-52
2023/03/25 09:31:42;;;;;;;1.43;0.90;;;;;;;12.37;92.36;99421.88;4941933;28;20480;-51
2023/03/25 09:34:08;;;;;;;2.03;0.70;;;;;;;12.51;90.96;99429.19;4941699;29;20466;-53
2023/03/25 09:36:36;;;;;;;1.10;0.80;;;;;;;12.55;89.64;99434.25;4931790;28;20456;-52
2023/03/25 09:39:02;;;;;;;2.30;0.40;;;;;;;12.50;86.81;99436.31;4934670;29;20457;-52
2023/03/25 09:41:38;;;;;;;1.07;0.60;;;;;;;12.34;87.00;99440.69;4941313;29;20486;-52
2023/03/25 09:44:25;;;;;;;1.00;0.43;;;;;;;11.93;90.31;99446.22;4941251;28;20556;-51
2023/03/25 09:46:53;;;;;;;1.60;0.30;;;;;;;11.57;93.04;99448.78;4935200;29;20491;-52
2023/03/25 09:49:31;;;;;;;0.30;0.20;;;;;;;11.91;94.24;99425.91;4944975;28;21018;-52
2023/03/25 09:51:59;;;;;;;0.53;0.53;;;;;;;11.45;96.17;99462.63;4934274;28;20459;-52
2023/03/25 09:54:32;;;;;;;2.13;0.30;;;;;;;11.00;98.66;99471.72;4942063;28;20463;-51
2023/03/25 09:57:05;;;;;;;0.30;0.20;;;;;;;10.01;100.00;99481.16;4940597;28;20456;-51
2023/03/25 09:59:53;;;;;;;0.30;0.20;;;;;;;9.88;100.00;99491.38;4933483;29;20463;-50
2023/03/25 10:02:51;;;;;;;1.30;0.40;;;;;;;9.83;100.00;99500.41;4944623;29;20452;-50
2023/03/25 10:05:44;;;;;;;0.40;0.40;;;;;;;10.11;100.00;99503.72;4942223;28;20467;-50
2023/03/25 10:08:17;;;;;;;0.30;0.20;;;;;;;10.28;100.00;99489.81;4950893;28;20911;-51
2023/03/25 10:10:47;;;;;;;0.30;0.20;;;;;;;10.50;100.00;99490.69;4944436;28;20851;-51
2023/03/25 10:14:01;;;;;;;0.40;0.30;;;;;;;10.73;100.00;99495.03;4944286;29;20469;-51
2023/03/25 10:16:30;;;;;;;1.43;0.30;;;;;;;10.75;100.00;99489.66;4972420;28;20459;-50
2023/03/25 10:19:10;;;;;;;0.40;0.30;;;;;;;10.68;99.60;99499.66;4941407;28;20555;-51
2023/03/25 10:21:48;;;;;;;0.80;0.60;;;;;;;10.79;99.97;99494.78;4937626;28;20486;-51
2023/03/25 10:24:29;;;;;;;0.93;0.93;;;;;;;11.12;100.00;99489.81;4939788;28;20513;-50
2023/03/25 10:27:04;;;;;;;0.30;0.20;;;;;;;11.17;99.92;99493.13;4944166;29;20549;-50
2023/03/25 10:29:36;;;;;;;1.07;0.30;;;;;;;11.35;98.58;99483.47;4944159;29;20481;-52
2023/03/25 10:32:10;;;;;;;0.40;0.30;;;;;;;11.76;98.09;99486.03;4938846;28;20894;-50
2023/03/25 10:34:48;;;;;;;0.60;0.60;;;;;;;11.89;96.27;99473.91;4944128;28;20486;-51
2023/03/25 10:37:23;;;;;;;1.07;0.47;;;;;;;12.14;95.22;99479.81;4930753;28;20455;-51
2023/03/25 10:39:50;;;;;;;0.50;0.47;;;;;;;12.22;91.68;99473.25;4943949;29;20475;-52
2023/03/25 10:42:29;;;;;;;2.93;0.67;;;;;;;12.40;90.55;99477.69;4943158;28;20456;-52
2023/03/25 10:44:56;;;;;;;0.50;0.37;;;;;;;12.67;88.55;99478.97;4927345;28;20462;-51
2023/03/25 10:47:28;;;;;;;5.63;0.93;;;;;;;12.53;87.87;99473.47;4935690;28;20492;-52
2023/03/25 10:49:55;;;;;;;0.50;0.50;;;;;;;12.90;89.00;99482.28;4928972;28;20483;-52
2023/03/25 10:52:22;;;;;;;0.73;0.73;;;;;;;12.90;86.93;99487.63;4936240;29;20456;-52
2023/03/25 10:54:52;;;;;;;16.63;2.17;;;;;;;13.06;88.42;99469.88;4941469;28;20456;-52
2023/03/25 10:57:26;;;;;;;5.67;1.53;;;;;;;13.16;86.78;99471.16;4943558;29;21310;-51
2023/03/25 11:00:03;;;;;;;0.80;0.73;;;;;;;13.24;84.66;99473.44;4940836;28;20483;-52
2023/03/25 11:02:30;;;;;;;0.40;0.30;;;;;;;13.34;84.79;99469.34;4932236;28;20468;-51
2023/03/25 11:05:03;;;;;;;1.50;1.03;;;;;;;13.61;84.73;99470.53;4942239;29;20459;-51
2023/03/25 11:07:39;;;;;;;1.27;0.60;;;;;;;13.85;83.82;99473.69;4924779;29;20943;-52
2023/03/25 11:10:23;;;;;;;0.40;0.30;;;;;;;13.80;82.39;99475.72;4936227;29;20494;-53
2023/03/25 11:12:53;;;;;;;0.47;0.40;;;;;;;13.79;82.71;99474.00;4945363;28;20959;-53
2023/03/25 11:15:24;;;;;;;0.80;0.50;;;;;;;13.84;79.20;99466.59;4940700;28;20469;-52
2023/03/25 11:18:10;;;;;;;2.37;0.57;;;;;;;13.60;78.24;99478.63;4938673;28;20460;-53
2023/03/25 11:20:38;;;;;;;0.70;0.70;;;;;;;13.42;78.44;99474.25;4930937;29;20815;-53
2023/03/25 11:23:21;;;;;;;0.30;0.30;;;;;;;13.44;76.43;99478.59;4943388;29;20517;-53
2023/03/25 11:25:48;;;;;;;0.83;0.67;;;;;;;13.57;75.88;99486.81;4940482;28;20451;-52
2023/03/25 11:28:29;;;;;;;13.83;0.50;;;;;;;13.35;75.39;99489.75;4936534;28;20463;-52
2023/03/25 11:31:14;;;;;;;0.40;0.40;;;;;;;13.31;75.48;99482.84;4936667;28;20988;-53
2023/03/25 11:33:43;;;;;;;2.23;0.73;;;;;;;13.69;75.46;99474.56;4937916;28;20452;-52
2023/03/25 11:36:46;;;;;;;0.47;0.33;;;;;;;13.93;72.29;99475.91;4931095;28;20949;-52
2023/03/25 11:39:22;;;;;;;0.30;0.20;;;;;;;14.13;71.51;99472.13;4943029;29;20468;-51
2023/03/25 11:41:50;;;;;;;6.20;1.40;;;;;;;14.15;67.52;99470.22;4939451;29;20481;-52
2023/03/25 11:44:22;;;;;;;0.50;0.30;;;;;;;14.13;65.76;99473.00;4934127;28;20461;-51
2023/03/25 11:46:53;;;;;;;0.87;0.83;;;;;;;14.07;64.44;99465.31;4940352;28;20490;-52
2023/03/25 11:49:22;;;;;;;0.30;0.20;;;;;;;14.04;66.03;99468.16;4932201;28;20464;-51
2023/03/25 11:52:01;;;;;;;0.40;0.40;;;;;;;13.99;68.45;99470.22;4941535;28;20478;-51